Terminal Aerodrome Forecast
Issued by NWS

Home | Current Version | Previous Version | Text Only | Print | Product List | Glossary On
Versions: 1 2 3 4 5 6 7 8 9 10 11 12 13 14 15 16
000
FTUS43 KBIS 191100
TAFMOT
TAF
KMOT 191123Z 1912/2012 25011KT P6SM FEW050
      TEMPO 1912/1914 SCT030 BKN050
     FM191400 27022G31KT P6SM SKC
     FM200000 28011KT P6SM SKC
     FM200300 VRB03KT P6SM SKC
     FM200800 14005KT P6SM SKC=

USA.gov is the U.S. government's official web portal to all federal, state and local government web resources and services.